3N8

Mahnomen County Airport

Mahnomen, Minnesota, USA
METAR K3N8 161935Z AUTO 30009KT 10SM CLR 21/11 A3008 RMK AO2 T02140110
Observed Flight Rules
Jul-16 @ 19:35 UTC (20 minutes ago) Visual Flight Rules
Wind Visibility Clouds
300° at 9 knots 10 miles
  • Clear skies
Temperatures Readings
Current 21°C / 70°F
Dewpoint 11°C / 52°F
Humidity 53%
Altimeter 30.08" Hg
Pressure 1019 hPa
Elevation 383
METAR K3N8 161935Z AUTO 30009KT 10SM CLR 21/11 A3008 RMK AO2 T02140110
Observed Flight Rules
Jul-16 @ 19:35 UTC
(20 minutes ago)
VFR
Wind Visibility
300° at 9 knots 10 miles
Clouds
  • Clear skies
Temperature Dewpoint
21°C / 70°F 11°C / 52°F
Humidity Altimeter Pressure
53% 30.08" Hg 1019 hPa